sensor_id;sensor_type;location;lat;lon;timestamp;temperature;humidity
16879;DHT22;8556;52.218;9.884;2022-08-02T00:01:43;14.70;99.90
16879;DHT22;8556;52.218;9.884;2022-08-02T00:04:10;14.70;99.90
16879;DHT22;8556;52.218;9.884;2022-08-02T00:06:37;14.60;99.90
16879;DHT22;8556;52.218;9.884;2022-08-02T00:09:04;14.60;99.90
16879;DHT22;8556;52.218;9.884;2022-08-02T00:11:33;14.70;99.90
16879;DHT22;8556;52.218;9.884;2022-08-02T00:14:00;14.40;99.90
16879;DHT22;8556;52.218;9.884;2022-08-02T00:16:28;14.40;99.90
16879;DHT22;8556;52.218;9.884;2022-08-02T00:18:57;14.50;99.90
16879;DHT22;8556;52.218;9.884;2022-08-02T00:21:24;14.30;99.90
16879;DHT22;8556;52.218;9.884;2022-08-02T00:23:51;14.30;99.90
16879;DHT22;8556;52.218;9.884;2022-08-02T00:26:18;14.20;99.90
16879;DHT22;8556;52.218;9.884;2022-08-02T00:28:46;14.30;99.90
16879;DHT22;8556;52.218;9.884;2022-08-02T00:31:13;14.20;99.90
16879;DHT22;8556;52.218;9.884;2022-08-02T00:33:41;14.10;99.90
16879;DHT22;8556;52.218;9.884;2022-08-02T00:36:08;14.20;99.90
16879;DHT22;8556;52.218;9.884;2022-08-02T00:38:35;14.10;99.90
16879;DHT22;8556;52.218;9.884;2022-08-02T00:41:02;14.10;99.90
16879;DHT22;8556;52.218;9.884;2022-08-02T00:43:29;13.90;99.90
16879;DHT22;8556;52.218;9.884;2022-08-02T00:45:58;14.00;99.90
16879;DHT22;8556;52.218;9.884;2022-08-02T00:48:25;13.90;99.90
16879;DHT22;8556;52.218;9.884;2022-08-02T00:50:55;14.00;99.90
16879;DHT22;8556;52.218;9.884;2022-08-02T00:53:22;14.20;99.90
16879;DHT22;8556;52.218;9.884;2022-08-02T00:55:49;14.20;99.90
16879;DHT22;8556;52.218;9.884;2022-08-02T00:58:16;14.10;99.90
16879;DHT22;8556;52.218;9.884;2022-08-02T01:00:43;14.00;99.90
16879;DHT22;8556;52.218;9.884;2022-08-02T01:03:11;14.20;99.90
16879;DHT22;8556;52.218;9.884;2022-08-02T01:05:38;14.20;99.90
16879;DHT22;8556;52.218;9.884;2022-08-02T01:08:06;14.10;99.90
16879;DHT22;8556;52.218;9.884;2022-08-02T01:10:33;14.10;99.90
16879;DHT22;8556;52.218;9.884;2022-08-02T01:13:00;14.20;99.90
16879;DHT22;8556;52.218;9.884;2022-08-02T01:15:27;13.90;99.90
16879;DHT22;8556;52.218;9.884;2022-08-02T01:18:00;14.10;99.90
16879;DHT22;8556;52.218;9.884;2022-08-02T01:20:45;14.30;99.90
16879;DHT22;8556;52.218;9.884;2022-08-02T01:23:30;14.30;99.90
16879;DHT22;8556;52.218;9.884;2022-08-02T01:26:17;14.00;99.90
16879;DHT22;8556;52.218;9.884;2022-08-02T01:28:53;14.00;99.90
16879;DHT22;8556;52.218;9.884;2022-08-02T01:31:27;14.00;99.90
16879;DHT22;8556;52.218;9.884;2022-08-02T01:34:00;14.00;99.90
16879;DHT22;8556;52.218;9.884;2022-08-02T01:36:32;13.80;99.90
16879;DHT22;8556;52.218;9.884;2022-08-02T01:39:00;13.90;99.90
16879;DHT22;8556;52.218;9.884;2022-08-02T01:41:31;13.70;99.90
16879;DHT22;8556;52.218;9.884;2022-08-02T01:44:01;13.60;99.90
16879;DHT22;8556;52.218;9.884;2022-08-02T01:46:29;13.60;99.90
16879;DHT22;8556;52.218;9.884;2022-08-02T01:48:58;13.70;99.90
16879;DHT22;8556;52.218;9.884;2022-08-02T01:51:28;13.30;99.90
16879;DHT22;8556;52.218;9.884;2022-08-02T01:54:15;13.20;99.90
16879;DHT22;8556;52.218;9.884;2022-08-02T01:56:44;13.40;99.90
16879;DHT22;8556;52.218;9.884;2022-08-02T01:59:18;13.40;99.90
16879;DHT22;8556;52.218;9.884;2022-08-02T02:01:49;13.40;99.90
16879;DHT22;8556;52.218;9.884;2022-08-02T02:04:17;13.60;99.90
16879;DHT22;8556;52.218;9.884;2022-08-02T02:06:46;13.70;99.90
16879;DHT22;8556;52.218;9.884;2022-08-02T02:09:15;13.80;99.90
16879;DHT22;8556;52.218;9.884;2022-08-02T02:11:43;13.60;99.90
16879;DHT22;8556;52.218;9.884;2022-08-02T02:14:11;13.60;99.90
16879;DHT22;8556;52.218;9.884;2022-08-02T02:16:43;13.50;99.90
16879;DHT22;8556;52.218;9.884;2022-08-02T02:19:12;13.70;99.90
16879;DHT22;8556;52.218;9.884;2022-08-02T02:21:41;13.80;99.90
16879;DHT22;8556;52.218;9.884;2022-08-02T02:24:08;13.60;99.90
16879;DHT22;8556;52.218;9.884;2022-08-02T02:26:37;13.60;99.90
16879;DHT22;8556;52.218;9.884;2022-08-02T02:29:05;13.50;99.90
16879;DHT22;8556;52.218;9.884;2022-08-02T02:31:36;13.50;99.90
16879;DHT22;8556;52.218;9.884;2022-08-02T02:34:08;13.50;99.90
16879;DHT22;8556;52.218;9.884;2022-08-02T02:36:38;13.60;99.90
16879;DHT22;8556;52.218;9.884;2022-08-02T02:39:09;13.50;99.90
16879;DHT22;8556;52.218;9.884;2022-08-02T02:41:38;13.60;99.90
16879;DHT22;8556;52.218;9.884;2022-08-02T02:44:09;13.70;99.90
16879;DHT22;8556;52.218;9.884;2022-08-02T02:46:37;13.50;99.90
16879;DHT22;8556;52.218;9.884;2022-08-02T02:49:10;13.40;99.90
16879;DHT22;8556;52.218;9.884;2022-08-02T02:51:38;13.60;99.90
16879;DHT22;8556;52.218;9.884;2022-08-02T02:54:08;13.70;99.90
16879;DHT22;8556;52.218;9.884;2022-08-02T02:56:37;13.50;99.90
16879;DHT22;8556;52.218;9.884;2022-08-02T02:59:07;13.00;99.90
16879;DHT22;8556;52.218;9.884;2022-08-02T03:01:34;12.90;99.90
16879;DHT22;8556;52.218;9.884;2022-08-02T03:04:04;12.80;99.90
16879;DHT22;8556;52.218;9.884;2022-08-02T03:06:35;12.90;99.90
16879;DHT22;8556;52.218;9.884;2022-08-02T03:09:03;12.60;99.90
16879;DHT22;8556;52.218;9.884;2022-08-02T03:11:30;12.60;99.90
16879;DHT22;8556;52.218;9.884;2022-08-02T03:13:58;12.90;99.90
16879;DHT22;8556;52.218;9.884;2022-08-02T03:16:26;12.80;99.90
16879;DHT22;8556;52.218;9.884;2022-08-02T03:18:54;12.90;99.90
16879;DHT22;8556;52.218;9.884;2022-08-02T03:21:22;12.70;99.90
16879;DHT22;8556;52.218;9.884;2022-08-02T03:23:51;12.80;99.90
16879;DHT22;8556;52.218;9.884;2022-08-02T03:26:17;13.10;99.90
16879;DHT22;8556;52.218;9.884;2022-08-02T03:28:45;13.00;99.90
16879;DHT22;8556;52.218;9.884;2022-08-02T03:31:11;12.90;99.90
16879;DHT22;8556;52.218;9.884;2022-08-02T03:33:38;12.80;99.90
16879;DHT22;8556;52.218;9.884;2022-08-02T03:36:10;12.80;99.90
16879;DHT22;8556;52.218;9.884;2022-08-02T03:38:38;13.00;99.90
16879;DHT22;8556;52.218;9.884;2022-08-02T03:41:08;13.00;99.90
16879;DHT22;8556;52.218;9.884;2022-08-02T03:43:36;12.90;99.90
16879;DHT22;8556;52.218;9.884;2022-08-02T03:46:06;12.80;99.90
16879;DHT22;8556;52.218;9.884;2022-08-02T03:48:36;12.60;99.90
16879;DHT22;8556;52.218;9.884;2022-08-02T03:51:04;12.70;99.90
16879;DHT22;8556;52.218;9.884;2022-08-02T03:53:32;12.60;99.90
16879;DHT22;8556;52.218;9.884;2022-08-02T03:55:59;12.40;99.90
16879;DHT22;8556;52.218;9.884;2022-08-02T03:58:28;12.20;99.90
16879;DHT22;8556;52.218;9.884;2022-08-02T04:00:56;12.30;99.90
16879;DHT22;8556;52.218;9.884;2022-08-02T04:03:23;12.60;99.90
16879;DHT22;8556;52.218;9.884;2022-08-02T04:05:50;12.70;99.90
16879;DHT22;8556;52.218;9.884;2022-08-02T04:08:18;12.50;99.90
16879;DHT22;8556;52.218;9.884;2022-08-02T04:10:45;12.50;99.90
16879;DHT22;8556;52.218;9.884;2022-08-02T04:13:33;12.30;99.90
16879;DHT22;8556;52.218;9.884;2022-08-02T04:16:05;12.70;99.90
16879;DHT22;8556;52.218;9.884;2022-08-02T04:18:39;12.60;99.90
16879;DHT22;8556;52.218;9.884;2022-08-02T04:21:10;12.50;99.90
16879;DHT22;8556;52.218;9.884;2022-08-02T04:23:39;12.60;99.90
16879;DHT22;8556;52.218;9.884;2022-08-02T04:26:09;12.70;99.90
16879;DHT22;8556;52.218;9.884;2022-08-02T04:28:38;12.80;99.90
16879;DHT22;8556;52.218;9.884;2022-08-02T04:31:06;12.70;99.90
16879;DHT22;8556;52.218;9.884;2022-08-02T04:33:34;12.70;99.90
16879;DHT22;8556;52.218;9.884;2022-08-02T04:36:02;12.70;99.90
16879;DHT22;8556;52.218;9.884;2022-08-02T04:38:30;13.00;99.90
16879;DHT22;8556;52.218;9.884;2022-08-02T04:40:57;13.10;99.90
16879;DHT22;8556;52.218;9.884;2022-08-02T04:43:24;13.10;99.90
16879;DHT22;8556;52.218;9.884;2022-08-02T04:45:53;12.90;99.90
16879;DHT22;8556;52.218;9.884;2022-08-02T04:48:21;13.00;99.90
16879;DHT22;8556;52.218;9.884;2022-08-02T04:50:48;13.30;99.90
16879;DHT22;8556;52.218;9.884;2022-08-02T04:53:16;13.40;99.90
16879;DHT22;8556;52.218;9.884;2022-08-02T04:55:43;13.60;99.90
16879;DHT22;8556;52.218;9.884;2022-08-02T04:58:10;13.50;99.90
16879;DHT22;8556;52.218;9.884;2022-08-02T05:00:37;13.20;99.90
16879;DHT22;8556;52.218;9.884;2022-08-02T05:03:05;13.10;99.90
16879;DHT22;8556;52.218;9.884;2022-08-02T05:05:32;13.30;99.90
16879;DHT22;8556;52.218;9.884;2022-08-02T05:07:59;13.50;99.90
16879;DHT22;8556;52.218;9.884;2022-08-02T05:10:26;13.60;99.90
16879;DHT22;8556;52.218;9.884;2022-08-02T05:12:54;13.60;99.90
16879;DHT22;8556;52.218;9.884;2022-08-02T05:15:21;13.50;99.90
16879;DHT22;8556;52.218;9.884;2022-08-02T05:17:48;13.60;99.90
16879;DHT22;8556;52.218;9.884;2022-08-02T05:20:18;13.70;99.90
16879;DHT22;8556;52.218;9.884;2022-08-02T05:22:46;13.60;99.90
16879;DHT22;8556;52.218;9.884;2022-08-02T05:25:13;13.50;99.90
16879;DHT22;8556;52.218;9.884;2022-08-02T05:27:40;13.60;99.90
16879;DHT22;8556;52.218;9.884;2022-08-02T05:30:08;13.70;99.90
16879;DHT22;8556;52.218;9.884;2022-08-02T05:32:42;13.90;99.90
16879;DHT22;8556;52.218;9.884;2022-08-02T05:35:09;14.20;99.90
16879;DHT22;8556;52.218;9.884;2022-08-02T05:37:38;14.50;99.90
16879;DHT22;8556;52.218;9.884;2022-08-02T05:40:06;14.70;99.90
16879;DHT22;8556;52.218;9.884;2022-08-02T05:42:33;14.90;99.90
16879;DHT22;8556;52.218;9.884;2022-08-02T05:45:00;15.00;99.90
16879;DHT22;8556;52.218;9.884;2022-08-02T05:47:27;15.20;99.90
16879;DHT22;8556;52.218;9.884;2022-08-02T05:49:54;15.40;99.90
16879;DHT22;8556;52.218;9.884;2022-08-02T05:52:24;15.30;99.90
16879;DHT22;8556;52.218;9.884;2022-08-02T05:55:04;15.80;99.90
16879;DHT22;8556;52.218;9.884;2022-08-02T05:57:38;15.60;99.90
16879;DHT22;8556;52.218;9.884;2022-08-02T06:00:09;15.40;99.90
16879;DHT22;8556;52.218;9.884;2022-08-02T06:02:52;15.50;99.90
16879;DHT22;8556;52.218;9.884;2022-08-02T06:05:21;15.40;99.90
16879;DHT22;8556;52.218;9.884;2022-08-02T06:07:49;15.40;99.90
16879;DHT22;8556;52.218;9.884;2022-08-02T06:10:19;15.50;99.90
16879;DHT22;8556;52.218;9.884;2022-08-02T06:15:30;15.50;99.90
16879;DHT22;8556;52.218;9.884;2022-08-02T06:17:58;15.80;99.90
16879;DHT22;8556;52.218;9.884;2022-08-02T06:20:26;16.00;99.90
16879;DHT22;8556;52.218;9.884;2022-08-02T06:23:00;16.20;99.90
16879;DHT22;8556;52.218;9.884;2022-08-02T06:25:30;16.40;99.90
16879;DHT22;8556;52.218;9.884;2022-08-02T06:27:58;16.40;99.90
16879;DHT22;8556;52.218;9.884;2022-08-02T06:30:26;16.40;99.90
16879;DHT22;8556;52.218;9.884;2022-08-02T06:32:53;16.50;99.90
16879;DHT22;8556;52.218;9.884;2022-08-02T06:35:24;16.50;99.90
16879;DHT22;8556;52.218;9.884;2022-08-02T06:37:55;16.60;99.90
16879;DHT22;8556;52.218;9.884;2022-08-02T06:40:28;16.50;99.90
16879;DHT22;8556;52.218;9.884;2022-08-02T06:43:06;16.50;99.90
16879;DHT22;8556;52.218;9.884;2022-08-02T06:45:35;16.60;99.90
16879;DHT22;8556;52.218;9.884;2022-08-02T06:48:03;16.60;99.90
16879;DHT22;8556;52.218;9.884;2022-08-02T06:50:30;16.80;99.90
16879;DHT22;8556;52.218;9.884;2022-08-02T06:52:57;16.70;99.90
16879;DHT22;8556;52.218;9.884;2022-08-02T06:55:25;16.80;99.90
16879;DHT22;8556;52.218;9.884;2022-08-02T06:57:53;16.90;99.90
16879;DHT22;8556;52.218;9.884;2022-08-02T07:00:22;17.10;99.90
16879;DHT22;8556;52.218;9.884;2022-08-02T07:02:49;17.10;99.90
16879;DHT22;8556;52.218;9.884;2022-08-02T07:05:16;17.10;99.90
16879;DHT22;8556;52.218;9.884;2022-08-02T07:07:44;17.20;99.90
16879;DHT22;8556;52.218;9.884;2022-08-02T07:10:12;17.30;99.90
16879;DHT22;8556;52.218;9.884;2022-08-02T07:12:39;17.70;99.90
16879;DHT22;8556;52.218;9.884;2022-08-02T07:15:07;17.70;99.90
16879;DHT22;8556;52.218;9.884;2022-08-02T07:17:36;17.70;99.90
16879;DHT22;8556;52.218;9.884;2022-08-02T07:20:04;17.60;99.90
16879;DHT22;8556;52.218;9.884;2022-08-02T07:22:31;17.80;99.90
16879;DHT22;8556;52.218;9.884;2022-08-02T07:24:59;17.80;99.90
16879;DHT22;8556;52.218;9.884;2022-08-02T07:27:27;17.80;99.90
16879;DHT22;8556;52.218;9.884;2022-08-02T07:29:55;17.80;99.90
16879;DHT22;8556;52.218;9.884;2022-08-02T07:32:24;17.90;99.90
16879;DHT22;8556;52.218;9.884;2022-08-02T07:34:53;18.10;99.90
16879;DHT22;8556;52.218;9.884;2022-08-02T07:37:23;18.20;99.90
16879;DHT22;8556;52.218;9.884;2022-08-02T07:39:50;18.30;99.90
16879;DHT22;8556;52.218;9.884;2022-08-02T07:42:17;18.40;99.90
16879;DHT22;8556;52.218;9.884;2022-08-02T07:44:44;18.50;99.90
16879;DHT22;8556;52.218;9.884;2022-08-02T07:47:11;18.50;99.90
16879;DHT22;8556;52.218;9.884;2022-08-02T07:49:38;18.70;99.90
16879;DHT22;8556;52.218;9.884;2022-08-02T07:52:07;18.80;99.90
16879;DHT22;8556;52.218;9.884;2022-08-02T07:54:34;18.90;99.90
16879;DHT22;8556;52.218;9.884;2022-08-02T07:57:01;18.80;99.90
16879;DHT22;8556;52.218;9.884;2022-08-02T07:59:28;18.90;99.90
16879;DHT22;8556;52.218;9.884;2022-08-02T08:01:55;18.90;99.90
16879;DHT22;8556;52.218;9.884;2022-08-02T08:04:22;19.10;99.90
16879;DHT22;8556;52.218;9.884;2022-08-02T08:06:48;19.30;99.90
16879;DHT22;8556;52.218;9.884;2022-08-02T08:09:18;19.40;99.90
16879;DHT22;8556;52.218;9.884;2022-08-02T08:11:46;19.50;99.90
16879;DHT22;8556;52.218;9.884;2022-08-02T08:14:13;19.60;99.90
16879;DHT22;8556;52.218;9.884;2022-08-02T08:16:40;19.60;99.90
16879;DHT22;8556;52.218;9.884;2022-08-02T08:19:07;19.60;99.90
16879;DHT22;8556;52.218;9.884;2022-08-02T08:21:34;19.80;99.90
16879;DHT22;8556;52.218;9.884;2022-08-02T08:24:01;19.80;99.90
16879;DHT22;8556;52.218;9.884;2022-08-02T08:26:30;19.80;99.90
16879;DHT22;8556;52.218;9.884;2022-08-02T08:28:58;20.00;99.90
16879;DHT22;8556;52.218;9.884;2022-08-02T08:31:25;20.00;99.90
16879;DHT22;8556;52.218;9.884;2022-08-02T08:33:52;20.10;99.90
16879;DHT22;8556;52.218;9.884;2022-08-02T08:36:19;20.40;99.90
16879;DHT22;8556;52.218;9.884;2022-08-02T08:38:46;20.60;99.90
16879;DHT22;8556;52.218;9.884;2022-08-02T08:41:15;20.80;99.90
16879;DHT22;8556;52.218;9.884;2022-08-02T08:43:44;20.80;99.90
16879;DHT22;8556;52.218;9.884;2022-08-02T08:46:17;20.80;99.90
16879;DHT22;8556;52.218;9.884;2022-08-02T08:48:47;20.90;99.90
16879;DHT22;8556;52.218;9.884;2022-08-02T08:51:20;21.00;99.90
16879;DHT22;8556;52.218;9.884;2022-08-02T08:53:48;21.00;99.90
16879;DHT22;8556;52.218;9.884;2022-08-02T08:56:15;21.30;99.90
16879;DHT22;8556;52.218;9.884;2022-08-02T08:58:45;21.30;99.90
16879;DHT22;8556;52.218;9.884;2022-08-02T09:01:13;21.60;99.90
16879;DHT22;8556;52.218;9.884;2022-08-02T09:03:41;21.80;99.90
16879;DHT22;8556;52.218;9.884;2022-08-02T09:06:08;22.10;99.90
16879;DHT22;8556;52.218;9.884;2022-08-02T09:08:35;22.20;99.90
16879;DHT22;8556;52.218;9.884;2022-08-02T09:11:11;22.60;99.90
16879;DHT22;8556;52.218;9.884;2022-08-02T09:13:50;22.80;99.90
16879;DHT22;8556;52.218;9.884;2022-08-02T09:16:28;23.20;96.80
16879;DHT22;8556;52.218;9.884;2022-08-02T09:18:56;23.40;98.70
16879;DHT22;8556;52.218;9.884;2022-08-02T09:21:24;24.10;93.50
16879;DHT22;8556;52.218;9.884;2022-08-02T09:23:59;24.00;90.30
16879;DHT22;8556;52.218;9.884;2022-08-02T09:26:26;24.20;81.10
16879;DHT22;8556;52.218;9.884;2022-08-02T09:29:00;24.30;81.10
16879;DHT22;8556;52.218;9.884;2022-08-02T09:31:27;24.40;69.10
16879;DHT22;8556;52.218;9.884;2022-08-02T09:33:56;24.70;59.30
16879;DHT22;8556;52.218;9.884;2022-08-02T09:36:24;24.80;56.10
16879;DHT22;8556;52.218;9.884;2022-08-02T09:38:55;24.90;57.90
16879;DHT22;8556;52.218;9.884;2022-08-02T09:41:24;25.00;55.00
16879;DHT22;8556;52.218;9.884;2022-08-02T09:43:52;25.10;55.40
16879;DHT22;8556;52.218;9.884;2022-08-02T09:46:23;25.60;55.00
16879;DHT22;8556;52.218;9.884;2022-08-02T09:48:51;25.20;45.90
16879;DHT22;8556;52.218;9.884;2022-08-02T09:51:21;25.40;46.00
16879;DHT22;8556;52.218;9.884;2022-08-02T09:53:50;25.60;46.50
16879;DHT22;8556;52.218;9.884;2022-08-02T09:56:18;25.90;44.70
16879;DHT22;8556;52.218;9.884;2022-08-02T09:58:45;25.90;37.60
16879;DHT22;8556;52.218;9.884;2022-08-02T10:01:13;26.20;43.80
16879;DHT22;8556;52.218;9.884;2022-08-02T10:03:58;26.60;38.60
16879;DHT22;8556;52.218;9.884;2022-08-02T10:06:26;25.70;33.20
16879;DHT22;8556;52.218;9.884;2022-08-02T10:08:53;25.60;33.60
16879;DHT22;8556;52.218;9.884;2022-08-02T10:11:21;25.60;35.00
16879;DHT22;8556;52.218;9.884;2022-08-02T10:13:48;25.40;38.60
16879;DHT22;8556;52.218;9.884;2022-08-02T10:16:17;26.30;35.60
16879;DHT22;8556;52.218;9.884;2022-08-02T10:18:48;25.90;30.10
16879;DHT22;8556;52.218;9.884;2022-08-02T10:21:20;26.70;32.80
16879;DHT22;8556;52.218;9.884;2022-08-02T10:23:49;26.50;30.70
16879;DHT22;8556;52.218;9.884;2022-08-02T10:26:18;26.50;31.20
16879;DHT22;8556;52.218;9.884;2022-08-02T10:28:47;27.10;28.70
16879;DHT22;8556;52.218;9.884;2022-08-02T10:31:18;26.90;27.50
16879;DHT22;8556;52.218;9.884;2022-08-02T10:33:47;26.80;27.40
16879;DHT22;8556;52.218;9.884;2022-08-02T10:36:17;27.70;26.80
16879;DHT22;8556;52.218;9.884;2022-08-02T10:38:45;27.50;25.10
16879;DHT22;8556;52.218;9.884;2022-08-02T10:41:12;27.50;24.10
16879;DHT22;8556;52.218;9.884;2022-08-02T10:43:42;27.60;22.10
16879;DHT22;8556;52.218;9.884;2022-08-02T10:46:31;27.60;24.20
16879;DHT22;8556;52.218;9.884;2022-08-02T10:49:06;27.30;20.80
16879;DHT22;8556;52.218;9.884;2022-08-02T10:52:08;27.20;20.30
16879;DHT22;8556;52.218;9.884;2022-08-02T10:54:38;28.00;22.70
16879;DHT22;8556;52.218;9.884;2022-08-02T10:57:16;27.60;20.20
16879;DHT22;8556;52.218;9.884;2022-08-02T10:59:44;27.60;19.50
16879;DHT22;8556;52.218;9.884;2022-08-02T11:02:11;27.70;17.10
16879;DHT22;8556;52.218;9.884;2022-08-02T11:05:00;27.50;15.60
16879;DHT22;8556;52.218;9.884;2022-08-02T11:07:35;27.50;13.20
16879;DHT22;8556;52.218;9.884;2022-08-02T11:10:37;27.70;16.00
16879;DHT22;8556;52.218;9.884;2022-08-02T11:13:07;27.60;18.20
16879;DHT22;8556;52.218;9.884;2022-08-02T11:15:53;27.90;15.40
16879;DHT22;8556;52.218;9.884;2022-08-02T11:18:22;27.80;15.70
16879;DHT22;8556;52.218;9.884;2022-08-02T11:21:20;27.80;17.40
16879;DHT22;8556;52.218;9.884;2022-08-02T11:23:50;27.80;16.70
16879;DHT22;8556;52.218;9.884;2022-08-02T11:26:42;28.00;16.10
16879;DHT22;8556;52.218;9.884;2022-08-02T11:29:10;27.80;14.30
16879;DHT22;8556;52.218;9.884;2022-08-02T11:31:38;27.90;15.80
16879;DHT22;8556;52.218;9.884;2022-08-02T11:34:06;27.90;16.20
16879;DHT22;8556;52.218;9.884;2022-08-02T11:36:45;27.60;13.70
16879;DHT22;8556;52.218;9.884;2022-08-02T11:39:15;28.10;17.70
16879;DHT22;8556;52.218;9.884;2022-08-02T11:41:48;27.20;14.50
16879;DHT22;8556;52.218;9.884;2022-08-02T11:44:16;27.70;14.90
16879;DHT22;8556;52.218;9.884;2022-08-02T11:46:43;28.00;15.30
16879;DHT22;8556;52.218;9.884;2022-08-02T11:49:14;28.40;16.90
16879;DHT22;8556;52.218;9.884;2022-08-02T11:51:51;28.00;12.60
16879;DHT22;8556;52.218;9.884;2022-08-02T11:54:27;28.00;15.00
16879;DHT22;8556;52.218;9.884;2022-08-02T11:57:07;28.70;14.10
16879;DHT22;8556;52.218;9.884;2022-08-02T11:59:36;28.00;13.10
16879;DHT22;8556;52.218;9.884;2022-08-02T12:02:04;28.70;14.80
16879;DHT22;8556;52.218;9.884;2022-08-02T12:04:31;28.60;12.10
16879;DHT22;8556;52.218;9.884;2022-08-02T12:06:59;28.80;10.30
16879;DHT22;8556;52.218;9.884;2022-08-02T12:09:30;28.70;9.60
16879;DHT22;8556;52.218;9.884;2022-08-02T12:11:58;29.20;10.10
16879;DHT22;8556;52.218;9.884;2022-08-02T12:14:27;29.10;6.70
16879;DHT22;8556;52.218;9.884;2022-08-02T12:16:55;29.30;7.80
16879;DHT22;8556;52.218;9.884;2022-08-02T12:19:40;29.40;7.40
16879;DHT22;8556;52.218;9.884;2022-08-02T12:22:10;28.50;6.90
16879;DHT22;8556;52.218;9.884;2022-08-02T12:24:41;28.70;11.20
16879;DHT22;8556;52.218;9.884;2022-08-02T12:27:08;29.20;10.30
16879;DHT22;8556;52.218;9.884;2022-08-02T12:29:37;29.40;9.80
16879;DHT22;8556;52.218;9.884;2022-08-02T12:32:05;29.20;7.80
16879;DHT22;8556;52.218;9.884;2022-08-02T12:34:33;29.20;10.10
16879;DHT22;8556;52.218;9.884;2022-08-02T12:37:03;29.00;8.50
16879;DHT22;8556;52.218;9.884;2022-08-02T12:39:40;29.00;8.00
16879;DHT22;8556;52.218;9.884;2022-08-02T12:42:09;29.00;10.60
16879;DHT22;8556;52.218;9.884;2022-08-02T12:44:38;28.90;10.90
16879;DHT22;8556;52.218;9.884;2022-08-02T12:47:15;28.40;8.90
16879;DHT22;8556;52.218;9.884;2022-08-02T12:49:42;28.10;10.60
16879;DHT22;8556;52.218;9.884;2022-08-02T12:52:19;28.80;10.10
16879;DHT22;8556;52.218;9.884;2022-08-02T12:54:48;28.80;12.80
16879;DHT22;8556;52.218;9.884;2022-08-02T12:57:17;28.80;12.40
16879;DHT22;8556;52.218;9.884;2022-08-02T12:59:49;29.10;11.60
16879;DHT22;8556;52.218;9.884;2022-08-02T13:02:16;28.90;12.00
16879;DHT22;8556;52.218;9.884;2022-08-02T13:04:44;28.60;11.50
16879;DHT22;8556;52.218;9.884;2022-08-02T13:07:11;29.10;12.50
16879;DHT22;8556;52.218;9.884;2022-08-02T13:09:40;28.70;10.50
16879;DHT22;8556;52.218;9.884;2022-08-02T13:12:10;28.40;10.70
16879;DHT22;8556;52.218;9.884;2022-08-02T13:14:37;28.70;11.80
16879;DHT22;8556;52.218;9.884;2022-08-02T13:17:04;28.70;9.50
16879;DHT22;8556;52.218;9.884;2022-08-02T13:19:31;28.80;8.90
16879;DHT22;8556;52.218;9.884;2022-08-02T13:21:59;28.90;8.90
16879;DHT22;8556;52.218;9.884;2022-08-02T13:24:26;28.90;9.80
16879;DHT22;8556;52.218;9.884;2022-08-02T13:26:53;28.90;9.80
16879;DHT22;8556;52.218;9.884;2022-08-02T13:29:21;28.60;9.30
16879;DHT22;8556;52.218;9.884;2022-08-02T13:31:48;28.70;10.50
16879;DHT22;8556;52.218;9.884;2022-08-02T13:34:15;28.50;11.40
16879;DHT22;8556;52.218;9.884;2022-08-02T13:36:42;29.00;13.30
16879;DHT22;8556;52.218;9.884;2022-08-02T13:39:09;29.50;12.40
16879;DHT22;8556;52.218;9.884;2022-08-02T13:41:37;29.40;9.00
16879;DHT22;8556;52.218;9.884;2022-08-02T13:44:04;29.40;7.90
16879;DHT22;8556;52.218;9.884;2022-08-02T13:46:33;29.60;7.50
16879;DHT22;8556;52.218;9.884;2022-08-02T13:49:01;29.70;6.30
16879;DHT22;8556;52.218;9.884;2022-08-02T13:51:28;28.80;8.40
16879;DHT22;8556;52.218;9.884;2022-08-02T13:53:55;29.20;6.80
16879;DHT22;8556;52.218;9.884;2022-08-02T13:56:22;28.90;8.20
16879;DHT22;8556;52.218;9.884;2022-08-02T13:58:49;28.70;6.90
16879;DHT22;8556;52.218;9.884;2022-08-02T14:01:16;29.00;8.10
16879;DHT22;8556;52.218;9.884;2022-08-02T14:03:44;29.40;6.90
16879;DHT22;8556;52.218;9.884;2022-08-02T14:06:11;29.20;7.10
16879;DHT22;8556;52.218;9.884;2022-08-02T14:08:38;29.20;7.10
16879;DHT22;8556;52.218;9.884;2022-08-02T14:11:05;29.30;7.90
16879;DHT22;8556;52.218;9.884;2022-08-02T14:13:32;29.60;8.80
16879;DHT22;8556;52.218;9.884;2022-08-02T14:15:59;29.30;8.00
16879;DHT22;8556;52.218;9.884;2022-08-02T14:18:26;29.40;7.70
16879;DHT22;8556;52.218;9.884;2022-08-02T14:20:55;29.40;7.50
16879;DHT22;8556;52.218;9.884;2022-08-02T14:23:22;29.20;9.00
16879;DHT22;8556;52.218;9.884;2022-08-02T14:25:49;29.60;8.00
16879;DHT22;8556;52.218;9.884;2022-08-02T14:28:16;29.10;7.60
16879;DHT22;8556;52.218;9.884;2022-08-02T14:30:43;28.90;7.50
16879;DHT22;8556;52.218;9.884;2022-08-02T14:33:10;29.00;9.80
16879;DHT22;8556;52.218;9.884;2022-08-02T14:35:37;29.00;7.00
16879;DHT22;8556;52.218;9.884;2022-08-02T14:38:06;28.80;9.40
16879;DHT22;8556;52.218;9.884;2022-08-02T14:40:33;29.30;10.10
16879;DHT22;8556;52.218;9.884;2022-08-02T14:43:00;29.40;8.70
16879;DHT22;8556;52.218;9.884;2022-08-02T14:45:28;29.00;6.80
16879;DHT22;8556;52.218;9.884;2022-08-02T14:47:55;29.20;8.00
16879;DHT22;8556;52.218;9.884;2022-08-02T14:50:22;29.30;9.10
16879;DHT22;8556;52.218;9.884;2022-08-02T14:52:49;29.20;7.50
16879;DHT22;8556;52.218;9.884;2022-08-02T14:55:18;29.00;7.40
16879;DHT22;8556;52.218;9.884;2022-08-02T14:57:45;28.50;7.60
16879;DHT22;8556;52.218;9.884;2022-08-02T15:00:13;28.80;8.80
16879;DHT22;8556;52.218;9.884;2022-08-02T15:02:42;29.10;9.80
16879;DHT22;8556;52.218;9.884;2022-08-02T15:05:09;29.20;9.60
16879;DHT22;8556;52.218;9.884;2022-08-02T15:07:36;28.90;9.10
16879;DHT22;8556;52.218;9.884;2022-08-02T15:10:04;29.30;10.90
16879;DHT22;8556;52.218;9.884;2022-08-02T15:12:32;28.70;8.50
16879;DHT22;8556;52.218;9.884;2022-08-02T15:14:59;29.30;9.80
16879;DHT22;8556;52.218;9.884;2022-08-02T15:17:26;29.10;9.90
16879;DHT22;8556;52.218;9.884;2022-08-02T15:19:53;29.10;11.30
16879;DHT22;8556;52.218;9.884;2022-08-02T15:22:20;29.50;11.70
16879;DHT22;8556;52.218;9.884;2022-08-02T15:24:47;29.60;8.90
16879;DHT22;8556;52.218;9.884;2022-08-02T15:27:14;29.10;9.30
16879;DHT22;8556;52.218;9.884;2022-08-02T15:29:44;28.90;10.20
16879;DHT22;8556;52.218;9.884;2022-08-02T15:32:12;28.50;11.30
16879;DHT22;8556;52.218;9.884;2022-08-02T15:34:39;28.60;11.70
16879;DHT22;8556;52.218;9.884;2022-08-02T15:37:06;28.60;9.60
16879;DHT22;8556;52.218;9.884;2022-08-02T15:39:33;28.90;10.60
16879;DHT22;8556;52.218;9.884;2022-08-02T15:42:00;28.50;9.60
16879;DHT22;8556;52.218;9.884;2022-08-02T15:44:27;28.60;10.70
16879;DHT22;8556;52.218;9.884;2022-08-02T15:46:56;28.60;8.90
16879;DHT22;8556;52.218;9.884;2022-08-02T15:49:23;28.60;9.80
16879;DHT22;8556;52.218;9.884;2022-08-02T15:51:51;28.60;9.70
16879;DHT22;8556;52.218;9.884;2022-08-02T15:54:18;28.70;6.50
16879;DHT22;8556;52.218;9.884;2022-08-02T15:56:46;28.70;7.90
16879;DHT22;8556;52.218;9.884;2022-08-02T15:59:16;28.90;8.50
16879;DHT22;8556;52.218;9.884;2022-08-02T16:01:43;28.70;8.10
16879;DHT22;8556;52.218;9.884;2022-08-02T16:04:13;28.70;9.60
16879;DHT22;8556;52.218;9.884;2022-08-02T16:06:40;28.70;9.40